sensor_id;sensor_type;location;lat;lon;timestamp;P1;durP1;ratioP1;P2;durP2;ratioP2
11514;SDS011;5814;41.936;25.556;2023-03-01T00:02:23;3.60;;;3.50;;
11514;SDS011;5814;41.936;25.556;2023-03-01T00:04:51;4.83;;;4.53;;
11514;SDS011;5814;41.936;25.556;2023-03-01T00:07:18;4.43;;;4.33;;
11514;SDS011;5814;41.936;25.556;2023-03-01T00:09:45;11.30;;;10.90;;
11514;SDS011;5814;41.936;25.556;2023-03-01T00:12:12;11.33;;;11.00;;
11514;SDS011;5814;41.936;25.556;2023-03-01T00:14:39;10.63;;;10.33;;
11514;SDS011;5814;41.936;25.556;2023-03-01T00:17:06;5.33;;;5.17;;
11514;SDS011;5814;41.936;25.556;2023-03-01T00:19:34;6.03;;;5.63;;
11514;SDS011;5814;41.936;25.556;2023-03-01T00:22:01;5.37;;;5.07;;
11514;SDS011;5814;41.936;25.556;2023-03-01T00:24:28;11.40;;;11.00;;
11514;SDS011;5814;41.936;25.556;2023-03-01T00:26:55;3.67;;;3.57;;
11514;SDS011;5814;41.936;25.556;2023-03-01T00:29:23;5.63;;;5.20;;
11514;SDS011;5814;41.936;25.556;2023-03-01T00:31:50;9.47;;;9.17;;
11514;SDS011;5814;41.936;25.556;2023-03-01T00:34:18;9.50;;;9.20;;
11514;SDS011;5814;41.936;25.556;2023-03-01T00:36:45;9.60;;;9.30;;
11514;SDS011;5814;41.936;25.556;2023-03-01T00:39:13;10.10;;;9.80;;
11514;SDS011;5814;41.936;25.556;2023-03-01T00:41:39;3.80;;;3.70;;
11514;SDS011;5814;41.936;25.556;2023-03-01T00:44:06;4.07;;;3.97;;
11514;SDS011;5814;41.936;25.556;2023-03-01T00:46:33;8.43;;;6.07;;
11514;SDS011;5814;41.936;25.556;2023-03-01T00:49:01;10.20;;;9.90;;
11514;SDS011;5814;41.936;25.556;2023-03-01T00:51:28;10.00;;;9.70;;
11514;SDS011;5814;41.936;25.556;2023-03-01T00:53:56;8.30;;;7.60;;
11514;SDS011;5814;41.936;25.556;2023-03-01T00:56:22;11.50;;;10.90;;
11514;SDS011;5814;41.936;25.556;2023-03-01T00:58:49;13.40;;;12.47;;
11514;SDS011;5814;41.936;25.556;2023-03-01T01:01:18;10.57;;;10.13;;
11514;SDS011;5814;41.936;25.556;2023-03-01T01:03:46;10.17;;;9.87;;
11514;SDS011;5814;41.936;25.556;2023-03-01T01:06:15;10.97;;;10.67;;
11514;SDS011;5814;41.936;25.556;2023-03-01T01:08:42;11.57;;;11.17;;
11514;SDS011;5814;41.936;25.556;2023-03-01T01:11:10;10.10;;;9.80;;
11514;SDS011;5814;41.936;25.556;2023-03-01T01:13:37;10.40;;;10.10;;
11514;SDS011;5814;41.936;25.556;2023-03-01T01:16:04;15.33;;;13.57;;
11514;SDS011;5814;41.936;25.556;2023-03-01T01:18:31;10.77;;;10.47;;
11514;SDS011;5814;41.936;25.556;2023-03-01T01:21:03;10.33;;;10.03;;
11514;SDS011;5814;41.936;25.556;2023-03-01T01:23:34;10.63;;;10.23;;
11514;SDS011;5814;41.936;25.556;2023-03-01T01:26:04;9.70;;;9.40;;
11514;SDS011;5814;41.936;25.556;2023-03-01T01:28:33;9.30;;;9.00;;
11514;SDS011;5814;41.936;25.556;2023-03-01T01:31:01;9.73;;;9.43;;
11514;SDS011;5814;41.936;25.556;2023-03-01T01:33:28;10.50;;;10.20;;
11514;SDS011;5814;41.936;25.556;2023-03-01T01:35:55;10.30;;;10.00;;
11514;SDS011;5814;41.936;25.556;2023-03-01T01:38:22;9.50;;;9.20;;
11514;SDS011;5814;41.936;25.556;2023-03-01T01:40:50;10.00;;;9.70;;
11514;SDS011;5814;41.936;25.556;2023-03-01T01:43:20;9.63;;;9.33;;
11514;SDS011;5814;41.936;25.556;2023-03-01T01:45:47;10.97;;;10.37;;
11514;SDS011;5814;41.936;25.556;2023-03-01T01:48:16;10.73;;;10.33;;
11514;SDS011;5814;41.936;25.556;2023-03-01T01:50:43;9.90;;;9.60;;
11514;SDS011;5814;41.936;25.556;2023-03-01T01:53:12;9.60;;;9.30;;
11514;SDS011;5814;41.936;25.556;2023-03-01T01:55:41;10.43;;;10.13;;
11514;SDS011;5814;41.936;25.556;2023-03-01T01:58:07;10.93;;;10.63;;
11514;SDS011;5814;41.936;25.556;2023-03-01T02:00:34;10.57;;;10.27;;
11514;SDS011;5814;41.936;25.556;2023-03-01T02:03:05;11.40;;;11.03;;
11514;SDS011;5814;41.936;25.556;2023-03-01T02:08:10;3.70;;;3.60;;
11514;SDS011;5814;41.936;25.556;2023-03-01T02:10:36;11.13;;;10.83;;
11514;SDS011;5814;41.936;25.556;2023-03-01T02:13:03;4.13;;;4.03;;
11514;SDS011;5814;41.936;25.556;2023-03-01T02:15:32;10.07;;;9.77;;
11514;SDS011;5814;41.936;25.556;2023-03-01T02:17:58;10.13;;;9.83;;
11514;SDS011;5814;41.936;25.556;2023-03-01T02:21:35;10.90;;;10.60;;
11514;SDS011;5814;41.936;25.556;2023-03-01T02:23:14;9.77;;;9.47;;
11514;SDS011;5814;41.936;25.556;2023-03-01T02:25:46;10.60;;;10.30;;
11514;SDS011;5814;41.936;25.556;2023-03-01T02:30:59;11.13;;;10.83;;
11514;SDS011;5814;41.936;25.556;2023-03-01T02:33:33;10.93;;;10.63;;
11514;SDS011;5814;41.936;25.556;2023-03-01T02:36:00;11.00;;;10.70;;
11514;SDS011;5814;41.936;25.556;2023-03-01T02:38:26;11.90;;;11.50;;
11514;SDS011;5814;41.936;25.556;2023-03-01T02:40:54;11.03;;;10.73;;
11514;SDS011;5814;41.936;25.556;2023-03-01T02:43:21;11.73;;;11.33;;
11514;SDS011;5814;41.936;25.556;2023-03-01T02:45:49;13.00;;;12.50;;
11514;SDS011;5814;41.936;25.556;2023-03-01T02:48:16;11.50;;;11.13;;
11514;SDS011;5814;41.936;25.556;2023-03-01T02:50:51;11.20;;;10.90;;
11514;SDS011;5814;41.936;25.556;2023-03-01T02:53:17;11.40;;;11.00;;
11514;SDS011;5814;41.936;25.556;2023-03-01T02:55:43;10.43;;;10.13;;
11514;SDS011;5814;41.936;25.556;2023-03-01T02:58:10;11.17;;;10.87;;
11514;SDS011;5814;41.936;25.556;2023-03-01T03:00:40;10.00;;;9.70;;
11514;SDS011;5814;41.936;25.556;2023-03-01T03:03:06;12.70;;;12.30;;
11514;SDS011;5814;41.936;25.556;2023-03-01T03:05:33;11.87;;;11.47;;
11514;SDS011;5814;41.936;25.556;2023-03-01T03:08:01;10.63;;;10.33;;
11514;SDS011;5814;41.936;25.556;2023-03-01T03:10:29;11.87;;;11.47;;
11514;SDS011;5814;41.936;25.556;2023-03-01T03:12:59;11.50;;;11.10;;
11514;SDS011;5814;41.936;25.556;2023-03-01T03:15:27;5.87;;;5.67;;
11514;SDS011;5814;41.936;25.556;2023-03-01T03:17:54;12.37;;;11.97;;
11514;SDS011;5814;41.936;25.556;2023-03-01T03:20:22;12.77;;;12.27;;
11514;SDS011;5814;41.936;25.556;2023-03-01T03:22:50;11.90;;;11.40;;
11514;SDS011;5814;41.936;25.556;2023-03-01T03:25:17;11.27;;;10.87;;
11514;SDS011;5814;41.936;25.556;2023-03-01T03:27:44;11.30;;;10.93;;
11514;SDS011;5814;41.936;25.556;2023-03-01T03:30:12;10.87;;;10.57;;
11514;SDS011;5814;41.936;25.556;2023-03-01T03:32:39;11.57;;;11.17;;
11514;SDS011;5814;41.936;25.556;2023-03-01T03:35:06;11.70;;;11.20;;
11514;SDS011;5814;41.936;25.556;2023-03-01T03:37:36;12.53;;;12.13;;
11514;SDS011;5814;41.936;25.556;2023-03-01T03:40:08;10.77;;;10.47;;
11514;SDS011;5814;41.936;25.556;2023-03-01T03:42:36;11.37;;;11.00;;
11514;SDS011;5814;41.936;25.556;2023-03-01T03:45:15;12.70;;;12.10;;
11514;SDS011;5814;41.936;25.556;2023-03-01T03:47:43;13.10;;;12.43;;
11514;SDS011;5814;41.936;25.556;2023-03-01T03:50:10;11.13;;;10.83;;
11514;SDS011;5814;41.936;25.556;2023-03-01T03:52:37;11.63;;;11.23;;
11514;SDS011;5814;41.936;25.556;2023-03-01T03:55:05;11.40;;;11.07;;
11514;SDS011;5814;41.936;25.556;2023-03-01T03:57:35;11.13;;;10.80;;
11514;SDS011;5814;41.936;25.556;2023-03-01T04:02:41;11.17;;;10.87;;
11514;SDS011;5814;41.936;25.556;2023-03-01T04:05:08;11.53;;;11.13;;
11514;SDS011;5814;41.936;25.556;2023-03-01T04:07:35;11.33;;;11.00;;
11514;SDS011;5814;41.936;25.556;2023-03-01T04:10:02;12.10;;;11.60;;
11514;SDS011;5814;41.936;25.556;2023-03-01T04:12:30;11.47;;;11.07;;
11514;SDS011;5814;41.936;25.556;2023-03-01T04:14:58;10.47;;;10.17;;
11514;SDS011;5814;41.936;25.556;2023-03-01T04:17:25;9.67;;;9.37;;
11514;SDS011;5814;41.936;25.556;2023-03-01T04:19:52;10.87;;;10.57;;
11514;SDS011;5814;41.936;25.556;2023-03-01T04:22:19;11.17;;;10.87;;
11514;SDS011;5814;41.936;25.556;2023-03-01T04:24:46;10.70;;;10.40;;
11514;SDS011;5814;41.936;25.556;2023-03-01T04:27:14;5.03;;;4.87;;
11514;SDS011;5814;41.936;25.556;2023-03-01T04:29:41;10.00;;;9.70;;
11514;SDS011;5814;41.936;25.556;2023-03-01T04:32:08;11.30;;;10.90;;
11514;SDS011;5814;41.936;25.556;2023-03-01T04:34:35;10.83;;;10.53;;
11514;SDS011;5814;41.936;25.556;2023-03-01T04:37:02;4.87;;;4.77;;
11514;SDS011;5814;41.936;25.556;2023-03-01T04:39:29;10.10;;;9.80;;
11514;SDS011;5814;41.936;25.556;2023-03-01T04:41:57;12.63;;;12.23;;
11514;SDS011;5814;41.936;25.556;2023-03-01T04:44:24;10.83;;;10.53;;
11514;SDS011;5814;41.936;25.556;2023-03-01T04:46:51;6.97;;;6.37;;
11514;SDS011;5814;41.936;25.556;2023-03-01T04:49:18;10.27;;;9.97;;
11514;SDS011;5814;41.936;25.556;2023-03-01T04:51:45;11.30;;;10.93;;
11514;SDS011;5814;41.936;25.556;2023-03-01T04:54:13;13.17;;;12.63;;
11514;SDS011;5814;41.936;25.556;2023-03-01T04:56:40;6.40;;;5.77;;
11514;SDS011;5814;41.936;25.556;2023-03-01T04:59:07;9.80;;;9.50;;
11514;SDS011;5814;41.936;25.556;2023-03-01T05:01:34;11.03;;;10.73;;
11514;SDS011;5814;41.936;25.556;2023-03-01T05:04:01;9.73;;;9.43;;
11514;SDS011;5814;41.936;25.556;2023-03-01T05:06:28;9.53;;;9.23;;
11514;SDS011;5814;41.936;25.556;2023-03-01T05:08:56;12.27;;;11.23;;
11514;SDS011;5814;41.936;25.556;2023-03-01T05:11:23;12.03;;;11.63;;
11514;SDS011;5814;41.936;25.556;2023-03-01T05:13:50;11.50;;;11.10;;
11514;SDS011;5814;41.936;25.556;2023-03-01T05:16:17;13.50;;;12.73;;
11514;SDS011;5814;41.936;25.556;2023-03-01T05:18:44;10.60;;;10.20;;
11514;SDS011;5814;41.936;25.556;2023-03-01T05:21:12;10.40;;;10.10;;
11514;SDS011;5814;41.936;25.556;2023-03-01T05:23:39;11.23;;;10.83;;
11514;SDS011;5814;41.936;25.556;2023-03-01T05:26:06;11.07;;;10.67;;
11514;SDS011;5814;41.936;25.556;2023-03-01T05:28:33;9.53;;;9.23;;
11514;SDS011;5814;41.936;25.556;2023-03-01T05:31:01;13.03;;;12.43;;
11514;SDS011;5814;41.936;25.556;2023-03-01T05:33:27;11.97;;;11.57;;
11514;SDS011;5814;41.936;25.556;2023-03-01T05:35:59;11.67;;;11.27;;
11514;SDS011;5814;41.936;25.556;2023-03-01T05:38:22;11.77;;;11.37;;
11514;SDS011;5814;41.936;25.556;2023-03-01T05:40:49;10.90;;;10.60;;
11514;SDS011;5814;41.936;25.556;2023-03-01T05:43:16;11.27;;;10.87;;
11514;SDS011;5814;41.936;25.556;2023-03-01T05:45:43;11.10;;;10.80;;
11514;SDS011;5814;41.936;25.556;2023-03-01T05:48:11;11.30;;;10.90;;
11514;SDS011;5814;41.936;25.556;2023-03-01T05:50:40;10.43;;;10.13;;
11514;SDS011;5814;41.936;25.556;2023-03-01T05:53:09;12.00;;;11.60;;
11514;SDS011;5814;41.936;25.556;2023-03-01T05:55:34;10.53;;;10.23;;
11514;SDS011;5814;41.936;25.556;2023-03-01T05:58:01;5.40;;;5.13;;
11514;SDS011;5814;41.936;25.556;2023-03-01T06:00:28;10.43;;;10.13;;
11514;SDS011;5814;41.936;25.556;2023-03-01T06:02:55;5.20;;;5.00;;
11514;SDS011;5814;41.936;25.556;2023-03-01T06:05:22;13.20;;;12.40;;
11514;SDS011;5814;41.936;25.556;2023-03-01T06:07:49;11.07;;;10.77;;
11514;SDS011;5814;41.936;25.556;2023-03-01T06:10:17;11.00;;;10.70;;
11514;SDS011;5814;41.936;25.556;2023-03-01T06:12:44;11.57;;;11.17;;
11514;SDS011;5814;41.936;25.556;2023-03-01T06:15:12;10.93;;;10.63;;
11514;SDS011;5814;41.936;25.556;2023-03-01T06:17:39;10.93;;;10.63;;
11514;SDS011;5814;41.936;25.556;2023-03-01T06:20:06;11.03;;;10.73;;
11514;SDS011;5814;41.936;25.556;2023-03-01T06:22:33;11.27;;;10.93;;
11514;SDS011;5814;41.936;25.556;2023-03-01T06:25:00;11.63;;;11.17;;
11514;SDS011;5814;41.936;25.556;2023-03-01T06:27:27;10.20;;;9.90;;
11514;SDS011;5814;41.936;25.556;2023-03-01T06:29:55;9.97;;;9.67;;
11514;SDS011;5814;41.936;25.556;2023-03-01T06:32:22;10.97;;;10.57;;
11514;SDS011;5814;41.936;25.556;2023-03-01T06:34:49;10.40;;;10.10;;
11514;SDS011;5814;41.936;25.556;2023-03-01T06:37:16;10.60;;;10.20;;
11514;SDS011;5814;41.936;25.556;2023-03-01T06:39:43;9.93;;;9.63;;
11514;SDS011;5814;41.936;25.556;2023-03-01T06:42:10;10.83;;;10.43;;
11514;SDS011;5814;41.936;25.556;2023-03-01T06:44:37;10.73;;;10.43;;
11514;SDS011;5814;41.936;25.556;2023-03-01T06:47:05;10.40;;;10.10;;
11514;SDS011;5814;41.936;25.556;2023-03-01T06:49:32;8.63;;;8.37;;
11514;SDS011;5814;41.936;25.556;2023-03-01T06:51:59;8.40;;;8.17;;
11514;SDS011;5814;41.936;25.556;2023-03-01T06:54:26;9.67;;;9.37;;
11514;SDS011;5814;41.936;25.556;2023-03-01T06:56:53;9.97;;;9.67;;
11514;SDS011;5814;41.936;25.556;2023-03-01T06:59:21;10.27;;;9.97;;
11514;SDS011;5814;41.936;25.556;2023-03-01T07:01:48;9.27;;;8.97;;
11514;SDS011;5814;41.936;25.556;2023-03-01T07:04:15;9.53;;;9.23;;
11514;SDS011;5814;41.936;25.556;2023-03-01T07:06:42;10.10;;;9.60;;
11514;SDS011;5814;41.936;25.556;2023-03-01T07:09:09;8.87;;;8.57;;
11514;SDS011;5814;41.936;25.556;2023-03-01T07:11:36;9.40;;;9.00;;
11514;SDS011;5814;41.936;25.556;2023-03-01T07:14:04;6.17;;;5.87;;
11514;SDS011;5814;41.936;25.556;2023-03-01T07:16:31;10.53;;;10.17;;
11514;SDS011;5814;41.936;25.556;2023-03-01T07:18:58;9.27;;;8.97;;
11514;SDS011;5814;41.936;25.556;2023-03-01T07:21:25;11.53;;;11.13;;
11514;SDS011;5814;41.936;25.556;2023-03-01T07:23:52;9.47;;;9.17;;
11514;SDS011;5814;41.936;25.556;2023-03-01T07:26:19;9.53;;;9.23;;
11514;SDS011;5814;41.936;25.556;2023-03-01T07:28:46;9.40;;;9.10;;
11514;SDS011;5814;41.936;25.556;2023-03-01T07:31:14;13.60;;;12.30;;
11514;SDS011;5814;41.936;25.556;2023-03-01T07:33:41;9.33;;;8.83;;
11514;SDS011;5814;41.936;25.556;2023-03-01T07:36:08;5.90;;;5.60;;
11514;SDS011;5814;41.936;25.556;2023-03-01T07:38:35;10.00;;;9.63;;
11514;SDS011;5814;41.936;25.556;2023-03-01T07:41:03;8.93;;;8.63;;
11514;SDS011;5814;41.936;25.556;2023-03-01T07:43:30;9.97;;;9.67;;
11514;SDS011;5814;41.936;25.556;2023-03-01T07:45:58;11.87;;;11.37;;
11514;SDS011;5814;41.936;25.556;2023-03-01T07:48:25;10.37;;;9.97;;
11514;SDS011;5814;41.936;25.556;2023-03-01T07:50:52;10.50;;;10.10;;
11514;SDS011;5814;41.936;25.556;2023-03-01T07:53:19;10.03;;;9.73;;
11514;SDS011;5814;41.936;25.556;2023-03-01T07:55:46;8.97;;;8.67;;
11514;SDS011;5814;41.936;25.556;2023-03-01T07:58:13;8.90;;;8.60;;
11514;SDS011;5814;41.936;25.556;2023-03-01T08:00:40;4.00;;;3.90;;
11514;SDS011;5814;41.936;25.556;2023-03-01T08:03:08;6.90;;;6.27;;
11514;SDS011;5814;41.936;25.556;2023-03-01T08:05:35;10.90;;;10.50;;
11514;SDS011;5814;41.936;25.556;2023-03-01T08:08:02;5.97;;;5.67;;
11514;SDS011;5814;41.936;25.556;2023-03-01T08:10:29;9.00;;;8.70;;
11514;SDS011;5814;41.936;25.556;2023-03-01T08:12:56;8.63;;;8.37;;
11514;SDS011;5814;41.936;25.556;2023-03-01T08:15:24;10.10;;;9.80;;
11514;SDS011;5814;41.936;25.556;2023-03-01T08:17:51;9.13;;;8.77;;
11514;SDS011;5814;41.936;25.556;2023-03-01T08:20:18;8.30;;;8.10;;
11514;SDS011;5814;41.936;25.556;2023-03-01T08:22:45;7.97;;;5.80;;
11514;SDS011;5814;41.936;25.556;2023-03-01T08:25:12;5.40;;;5.07;;
11514;SDS011;5814;41.936;25.556;2023-03-01T08:27:39;9.17;;;8.87;;
11514;SDS011;5814;41.936;25.556;2023-03-01T08:30:07;10.20;;;9.90;;
11514;SDS011;5814;41.936;25.556;2023-03-01T08:32:36;11.03;;;10.63;;
11514;SDS011;5814;41.936;25.556;2023-03-01T08:35:02;10.67;;;10.27;;
11514;SDS011;5814;41.936;25.556;2023-03-01T08:37:30;6.53;;;6.27;;
11514;SDS011;5814;41.936;25.556;2023-03-01T08:39:57;5.13;;;4.93;;
11514;SDS011;5814;41.936;25.556;2023-03-01T08:42:24;5.97;;;5.67;;
11514;SDS011;5814;41.936;25.556;2023-03-01T08:44:51;9.57;;;9.27;;
11514;SDS011;5814;41.936;25.556;2023-03-01T08:47:18;9.43;;;9.13;;
11514;SDS011;5814;41.936;25.556;2023-03-01T08:49:45;9.17;;;8.87;;
11514;SDS011;5814;41.936;25.556;2023-03-01T08:52:12;5.43;;;5.23;;
11514;SDS011;5814;41.936;25.556;2023-03-01T08:54:40;10.97;;;10.57;;
11514;SDS011;5814;41.936;25.556;2023-03-01T08:57:07;4.63;;;4.43;;
11514;SDS011;5814;41.936;25.556;2023-03-01T08:59:34;10.00;;;9.70;;
11514;SDS011;5814;41.936;25.556;2023-03-01T09:02:02;9.13;;;8.83;;
11514;SDS011;5814;41.936;25.556;2023-03-01T09:04:29;9.73;;;9.40;;
11514;SDS011;5814;41.936;25.556;2023-03-01T09:06:57;10.70;;;10.37;;
11514;SDS011;5814;41.936;25.556;2023-03-01T09:09:24;10.73;;;10.23;;
11514;SDS011;5814;41.936;25.556;2023-03-01T09:11:51;8.77;;;8.47;;
11514;SDS011;5814;41.936;25.556;2023-03-01T09:14:18;8.17;;;7.77;;
11514;SDS011;5814;41.936;25.556;2023-03-01T09:16:45;9.20;;;8.90;;
11514;SDS011;5814;41.936;25.556;2023-03-01T09:19:12;9.53;;;9.23;;
11514;SDS011;5814;41.936;25.556;2023-03-01T09:21:40;10.03;;;9.73;;
11514;SDS011;5814;41.936;25.556;2023-03-01T09:24:11;9.30;;;9.00;;
11514;SDS011;5814;41.936;25.556;2023-03-01T09:26:38;9.87;;;9.57;;
11514;SDS011;5814;41.936;25.556;2023-03-01T09:29:05;9.43;;;9.13;;
11514;SDS011;5814;41.936;25.556;2023-03-01T09:31:32;10.80;;;10.40;;
11514;SDS011;5814;41.936;25.556;2023-03-01T09:33:59;9.43;;;9.13;;
11514;SDS011;5814;41.936;25.556;2023-03-01T09:36:27;8.93;;;8.63;;
11514;SDS011;5814;41.936;25.556;2023-03-01T09:38:54;9.47;;;9.17;;
11514;SDS011;5814;41.936;25.556;2023-03-01T09:41:38;8.97;;;8.67;;
11514;SDS011;5814;41.936;25.556;2023-03-01T09:43:58;8.97;;;8.67;;
11514;SDS011;5814;41.936;25.556;2023-03-01T09:46:27;9.77;;;9.37;;
11514;SDS011;5814;41.936;25.556;2023-03-01T09:48:56;8.50;;;8.27;;
11514;SDS011;5814;41.936;25.556;2023-03-01T09:51:29;9.33;;;9.03;;
11514;SDS011;5814;41.936;25.556;2023-03-01T09:53:56;4.03;;;3.93;;
11514;SDS011;5814;41.936;25.556;2023-03-01T09:56:29;9.90;;;9.60;;
11514;SDS011;5814;41.936;25.556;2023-03-01T09:59:33;3.57;;;3.47;;
11514;SDS011;5814;41.936;25.556;2023-03-01T10:01:52;9.80;;;9.50;;
11514;SDS011;5814;41.936;25.556;2023-03-01T10:04:24;9.10;;;8.80;;
11514;SDS011;5814;41.936;25.556;2023-03-01T10:06:58;9.67;;;9.37;;
11514;SDS011;5814;41.936;25.556;2023-03-01T10:09:24;4.33;;;4.23;;
11514;SDS011;5814;41.936;25.556;2023-03-01T10:11:52;11.00;;;10.47;;
11514;SDS011;5814;41.936;25.556;2023-03-01T10:14:27;10.00;;;9.70;;
11514;SDS011;5814;41.936;25.556;2023-03-01T10:17:02;8.97;;;8.67;;
11514;SDS011;5814;41.936;25.556;2023-03-01T10:19:34;9.67;;;9.37;;
11514;SDS011;5814;41.936;25.556;2023-03-01T10:22:03;10.00;;;9.70;;
11514;SDS011;5814;41.936;25.556;2023-03-01T10:24:44;9.20;;;8.90;;
11514;SDS011;5814;41.936;25.556;2023-03-01T10:27:17;9.07;;;8.77;;
11514;SDS011;5814;41.936;25.556;2023-03-01T10:30:02;9.90;;;9.60;;
11514;SDS011;5814;41.936;25.556;2023-03-01T10:32:23;3.90;;;3.80;;
11514;SDS011;5814;41.936;25.556;2023-03-01T10:34:50;8.67;;;8.40;;
11514;SDS011;5814;41.936;25.556;2023-03-01T10:37:18;4.07;;;3.97;;
11514;SDS011;5814;41.936;25.556;2023-03-01T10:39:55;9.57;;;9.27;;
11514;SDS011;5814;41.936;25.556;2023-03-01T10:42:26;9.87;;;9.57;;
11514;SDS011;5814;41.936;25.556;2023-03-01T10:44:53;10.97;;;10.57;;
11514;SDS011;5814;41.936;25.556;2023-03-01T10:47:22;9.73;;;9.43;;
11514;SDS011;5814;41.936;25.556;2023-03-01T10:49:56;9.80;;;9.50;;
11514;SDS011;5814;41.936;25.556;2023-03-01T10:52:23;10.30;;;10.00;;
11514;SDS011;5814;41.936;25.556;2023-03-01T10:54:54;9.57;;;9.27;;
11514;SDS011;5814;41.936;25.556;2023-03-01T10:57:28;9.93;;;9.63;;
11514;SDS011;5814;41.936;25.556;2023-03-01T11:00:02;9.40;;;9.10;;
11514;SDS011;5814;41.936;25.556;2023-03-01T11:02:29;10.07;;;9.67;;
11514;SDS011;5814;41.936;25.556;2023-03-01T11:04:58;9.90;;;9.60;;
11514;SDS011;5814;41.936;25.556;2023-03-01T11:07:25;9.30;;;9.00;;
11514;SDS011;5814;41.936;25.556;2023-03-01T11:09:52;9.90;;;9.60;;
11514;SDS011;5814;41.936;25.556;2023-03-01T11:12:20;9.27;;;8.97;;
11514;SDS011;5814;41.936;25.556;2023-03-01T11:14:49;9.23;;;8.93;;
11514;SDS011;5814;41.936;25.556;2023-03-01T11:17:18;17.73;;;16.33;;
11514;SDS011;5814;41.936;25.556;2023-03-01T11:19:48;58.50;;;49.57;;
11514;SDS011;5814;41.936;25.556;2023-03-01T11:22:12;51.73;;;45.83;;
11514;SDS011;5814;41.936;25.556;2023-03-01T11:24:40;46.37;;;40.67;;
11514;SDS011;5814;41.936;25.556;2023-03-01T11:27:10;39.70;;;35.77;;
11514;SDS011;5814;41.936;25.556;2023-03-01T11:29:38;36.57;;;33.20;;
11514;SDS011;5814;41.936;25.556;2023-03-01T11:32:06;39.27;;;35.57;;
11514;SDS011;5814;41.936;25.556;2023-03-01T11:34:40;34.80;;;31.60;;
11514;SDS011;5814;41.936;25.556;2023-03-01T11:37:28;35.80;;;32.50;;
11514;SDS011;5814;41.936;25.556;2023-03-01T11:40:11;39.90;;;35.87;;
11514;SDS011;5814;41.936;25.556;2023-03-01T11:42:40;41.13;;;37.17;;
11514;SDS011;5814;41.936;25.556;2023-03-01T11:45:11;37.23;;;33.53;;
11514;SDS011;5814;41.936;25.556;2023-03-01T11:47:42;39.27;;;35.53;;
11514;SDS011;5814;41.936;25.556;2023-03-01T11:50:28;33.73;;;30.83;;
11514;SDS011;5814;41.936;25.556;2023-03-01T11:52:59;39.83;;;36.30;;
11514;SDS011;5814;41.936;25.556;2023-03-01T11:55:29;44.53;;;40.03;;
11514;SDS011;5814;41.936;25.556;2023-03-01T12:01:53;52.93;;;45.20;;
11514;SDS011;5814;41.936;25.556;2023-03-01T12:03:41;53.77;;;46.33;;
11514;SDS011;5814;41.936;25.556;2023-03-01T12:06:23;62.73;;;47.37;;
11514;SDS011;5814;41.936;25.556;2023-03-01T12:08:52;43.83;;;39.13;;
11514;SDS011;5814;41.936;25.556;2023-03-01T12:11:29;41.70;;;37.87;;
11514;SDS011;5814;41.936;25.556;2023-03-01T12:14:13;48.03;;;42.30;;
11514;SDS011;5814;41.936;25.556;2023-03-01T12:17:01;41.97;;;37.97;;
11514;SDS011;5814;41.936;25.556;2023-03-01T12:19:29;36.63;;;32.93;;
11514;SDS011;5814;41.936;25.556;2023-03-01T12:21:58;40.80;;;36.87;;
11514;SDS011;5814;41.936;25.556;2023-03-01T12:24:27;37.60;;;34.27;;
11514;SDS011;5814;41.936;25.556;2023-03-01T12:27:14;42.47;;;38.23;;
11514;SDS011;5814;41.936;25.556;2023-03-01T12:29:43;42.77;;;38.67;;
11514;SDS011;5814;41.936;25.556;2023-03-01T12:32:13;40.00;;;35.87;;
11514;SDS011;5814;41.936;25.556;2023-03-01T12:34:53;44.37;;;39.73;;
11514;SDS011;5814;41.936;25.556;2023-03-01T12:37:21;39.13;;;35.17;;
11514;SDS011;5814;41.936;25.556;2023-03-01T12:40:00;41.33;;;37.33;;
11514;SDS011;5814;41.936;25.556;2023-03-01T12:42:31;39.07;;;35.17;;
11514;SDS011;5814;41.936;25.556;2023-03-01T12:50:23;45.60;;;40.80;;
11514;SDS011;5814;41.936;25.556;2023-03-01T12:52:51;46.77;;;41.70;;
11514;SDS011;5814;41.936;25.556;2023-03-01T12:55:22;41.50;;;36.57;;
11514;SDS011;5814;41.936;25.556;2023-03-01T12:58:32;41.17;;;36.97;;
11514;SDS011;5814;41.936;25.556;2023-03-01T13:00:48;43.00;;;38.50;;
11514;SDS011;5814;41.936;25.556;2023-03-01T13:03:53;42.23;;;37.87;;
11514;SDS011;5814;41.936;25.556;2023-03-01T13:06:21;44.37;;;39.87;;
11514;SDS011;5814;41.936;25.556;2023-03-01T13:08:55;43.17;;;38.67;;
11514;SDS011;5814;41.936;25.556;2023-03-01T13:11:24;45.37;;;40.50;;
11514;SDS011;5814;41.936;25.556;2023-03-01T13:13:51;44.00;;;39.57;;
11514;SDS011;5814;41.936;25.556;2023-03-01T13:16:39;39.70;;;35.70;;
11514;SDS011;5814;41.936;25.556;2023-03-01T13:18:48;43.30;;;38.97;;
11514;SDS011;5814;41.936;25.556;2023-03-01T13:21:28;42.17;;;37.83;;
11514;SDS011;5814;41.936;25.556;2023-03-01T13:23:47;40.77;;;36.83;;
11514;SDS011;5814;41.936;25.556;2023-03-01T13:26:13;46.30;;;41.23;;
11514;SDS011;5814;41.936;25.556;2023-03-01T13:28:50;44.33;;;39.90;;
11514;SDS011;5814;41.936;25.556;2023-03-01T13:32:23;37.93;;;34.43;;
11514;SDS011;5814;41.936;25.556;2023-03-01T13:34:03;41.40;;;37.27;;
11514;SDS011;5814;41.936;25.556;2023-03-01T13:41:51;40.90;;;37.00;;
11514;SDS011;5814;41.936;25.556;2023-03-01T13:44:21;38.47;;;35.07;;
11514;SDS011;5814;41.936;25.556;2023-03-01T13:46:47;39.40;;;35.50;;
11514;SDS011;5814;41.936;25.556;2023-03-01T13:49:14;38.83;;;35.17;;
11514;SDS011;5814;41.936;25.556;2023-03-01T13:51:41;37.13;;;33.50;;
11514;SDS011;5814;41.936;25.556;2023-03-01T13:54:09;39.27;;;35.50;;
11514;SDS011;5814;41.936;25.556;2023-03-01T13:56:37;38.57;;;34.87;;
11514;SDS011;5814;41.936;25.556;2023-03-01T13:59:04;39.37;;;35.67;;
11514;SDS011;5814;41.936;25.556;2023-03-01T14:01:32;32.97;;;29.87;;
11514;SDS011;5814;41.936;25.556;2023-03-01T14:03:58;38.67;;;34.60;;
11514;SDS011;5814;41.936;25.556;2023-03-01T14:06:28;38.10;;;34.50;;
11514;SDS011;5814;41.936;25.556;2023-03-01T14:11:35;42.70;;;38.50;;
11514;SDS011;5814;41.936;25.556;2023-03-01T14:14:08;43.30;;;38.63;;
11514;SDS011;5814;41.936;25.556;2023-03-01T14:17:55;39.63;;;35.90;;
11514;SDS011;5814;41.936;25.556;2023-03-01T14:19:30;36.13;;;32.53;;
11514;SDS011;5814;41.936;25.556;2023-03-01T14:22:02;42.70;;;38.60;;
11514;SDS011;5814;41.936;25.556;2023-03-01T14:24:26;42.20;;;38.10;;
11514;SDS011;5814;41.936;25.556;2023-03-01T14:26:54;41.47;;;37.40;;
11514;SDS011;5814;41.936;25.556;2023-03-01T14:29:25;42.27;;;37.90;;
11514;SDS011;5814;41.936;25.556;2023-03-01T14:32:09;46.47;;;41.67;;
11514;SDS011;5814;41.936;25.556;2023-03-01T14:34:42;39.97;;;36.10;;
11514;SDS011;5814;41.936;25.556;2023-03-01T14:37:09;43.10;;;38.63;;
11514;SDS011;5814;41.936;25.556;2023-03-01T14:39:41;42.23;;;38.17;;
11514;SDS011;5814;41.936;25.556;2023-03-01T14:42:10;43.33;;;38.90;;
11514;SDS011;5814;41.936;25.556;2023-03-01T14:44:38;38.77;;;35.17;;
11514;SDS011;5814;41.936;25.556;2023-03-01T14:47:05;42.47;;;38.27;;
11514;SDS011;5814;41.936;25.556;2023-03-01T14:49:32;41.27;;;37.27;;
11514;SDS011;5814;41.936;25.556;2023-03-01T14:52:00;41.00;;;36.53;;
11514;SDS011;5814;41.936;25.556;2023-03-01T14:54:28;44.50;;;39.93;;
11514;SDS011;5814;41.936;25.556;2023-03-01T14:56:57;43.50;;;39.03;;
11514;SDS011;5814;41.936;25.556;2023-03-01T14:59:22;45.33;;;40.77;;
11514;SDS011;5814;41.936;25.556;2023-03-01T15:01:48;42.63;;;38.30;;
11514;SDS011;5814;41.936;25.556;2023-03-01T15:04:15;43.60;;;39.27;;
11514;SDS011;5814;41.936;25.556;2023-03-01T15:06:43;42.03;;;37.77;;